Time;durP1;ratioP1;P1;durP2;ratioP2;P2;SDS_P1;SDS_P2;PMS_P1;PMS_P2;Temp;Humidity;BMP_temperature;BMP_pressure;BME280_temperature;BME280_humidity;BME280_pressure;Samples;Min_cycle;Max_cycle;Signal;HPM_P1;HPM_P2
2023/09/11 00:00:20;;;;;;;;;;;;;;;25.47;37.18;101587.41;5075048;28;19931;-89
2023/09/11 00:02:45;;;;;;;;;;;;;;;25.40;37.16;101589.84;5075632;28;19995;-90
2023/09/11 00:05:10;;;;;;;;;;;;;;;25.36;36.53;101583.44;5077581;28;19935;-90
2023/09/11 00:07:36;;;;;;;;;;;;;;;25.35;36.64;101586.50;5087696;28;19916;-88
2023/09/11 00:10:01;;;;;;;;;;;;;;;25.29;36.60;101581.16;5082724;28;20079;-89
2023/09/11 00:12:27;;;;;;;;;;;;;;;25.23;36.55;101589.91;5076953;28;19951;-90
2023/09/11 00:14:52;;;;;;;;;;;;;;;25.20;36.62;101590.56;5075594;28;20575;-89
2023/09/11 00:17:17;;;;;;;;;;;;;;;25.18;36.65;101590.91;5076342;28;19931;-90
2023/09/11 00:19:43;;;;;;;;;;;;;;;25.17;36.71;101583.81;5077796;28;19920;-89
2023/09/11 00:22:08;;;;;;;;;;;;;;;25.16;36.71;101584.13;5075775;28;19931;-90
2023/09/11 00:24:33;;;;;;;;;;;;;;;25.15;36.90;101585.28;5074373;28;20011;-90
2023/09/11 00:26:58;;;;;;;;;;;;;;;25.13;36.87;101576.53;5081788;28;20316;-90
2023/09/11 00:29:24;;;;;;;;;;;;;;;25.10;37.00;101585.41;5075716;28;19927;-90
2023/09/11 00:31:49;;;;;;;;;;;;;;;25.08;36.78;101582.19;5079153;28;19931;-90
2023/09/11 00:34:14;;;;;;;;;;;;;;;25.07;36.74;101575.09;5073521;28;19920;-90
2023/09/11 00:36:40;;;;;;;;;;;;;;;25.05;36.85;101577.38;5073893;28;20334;-90
2023/09/11 00:39:05;;;;;;;;;;;;;;;25.03;36.84;101579.63;5078826;28;19920;-90
2023/09/11 00:41:30;;;;;;;;;;;;;;;24.99;36.77;101574.81;5079081;28;19927;-89
2023/09/11 00:43:56;;;;;;;;;;;;;;;24.97;36.72;101570.75;5078768;28;19925;-90
2023/09/11 00:46:21;;;;;;;;;;;;;;;24.93;36.98;101567.03;5074060;28;19931;-90
2023/09/11 00:48:51;;;;;;;;;;;;;;;24.89;37.03;101575.09;5070211;28;19916;-90
2023/09/11 00:51:16;;;;;;;;;;;;;;;24.87;36.83;101571.88;5073912;28;19981;-90
2023/09/11 00:53:42;;;;;;;;;;;;;;;24.85;36.42;101582.38;5071493;28;19917;-87
2023/09/11 00:56:07;;;;;;;;;;;;;;;24.80;36.79;101579.81;5070924;28;19916;-89
2023/09/11 00:58:32;;;;;;;;;;;;;;;24.76;36.72;101578.00;5070315;28;20315;-89
2023/09/11 01:00:58;;;;;;;;;;;;;;;24.72;36.80;101569.66;5072288;28;20295;-89
2023/09/11 01:03:24;;;;;;;;;;;;;;;24.68;36.86;101580.44;5073440;28;19960;-88
2023/09/11 01:05:50;;;;;;;;;;;;;;;24.64;36.69;101573.22;5073429;28;20015;-89
2023/09/11 01:08:16;;;;;;;;;;;;;;;24.61;36.89;101568.38;5071230;28;20013;-89
2023/09/11 01:10:41;;;;;;;;;;;;;;;24.60;36.85;101569.50;5075948;28;19951;-90
2023/09/11 01:13:06;;;;;;;;;;;;;;;24.59;36.96;101560.44;5069176;28;19944;-90
2023/09/11 01:15:37;;;;;;;;;;;;;;;24.60;36.95;101562.09;5075690;28;20396;-90
2023/09/11 01:18:02;;;;;;;;;;;;;;;24.57;36.91;101557.22;5071791;28;19935;-90
2023/09/11 01:20:46;;;;;;;;;;;;;;;24.56;37.06;101554.81;5080553;28;19916;-90
2023/09/11 01:23:30;;;;;;;;;;;;;;;24.50;37.17;101558.84;5072589;28;19978;-90
2023/09/11 01:25:56;;;;;;;;;;;;;;;24.44;37.09;101554.69;5071949;28;19947;-89
2023/09/11 01:28:33;;;;;;;;;;;;;;;24.40;37.15;101559.97;5075572;28;20372;-89
2023/09/11 01:30:59;;;;;;;;;;;;;;;24.39;37.23;101555.63;5075858;28;19921;-90
2023/09/11 01:33:24;;;;;;;;;;;;;;;24.36;37.19;101554.34;5070729;28;19962;-90
2023/09/11 01:35:50;;;;;;;;;;;;;;;24.34;37.13;101550.31;5074093;28;19993;-90
2023/09/11 01:38:17;;;;;;;;;;;;;;;24.32;37.30;101549.84;5075223;28;19973;-89
2023/09/11 01:40:43;;;;;;;;;;;;;;;24.27;37.28;101559.00;5070987;28;19963;-90
2023/09/11 01:43:11;;;;;;;;;;;;;;;24.25;37.35;101555.75;5070629;28;19947;-90
2023/09/11 01:45:39;;;;;;;;;;;;;;;24.22;37.22;101553.63;5071739;28;19921;-90
2023/09/11 01:48:05;;;;;;;;;;;;;;;24.20;37.10;101549.63;5072978;28;19916;-89
2023/09/11 01:50:33;;;;;;;;;;;;;;;24.17;37.44;101542.06;5074590;28;20372;-88
2023/09/11 01:52:59;;;;;;;;;;;;;;;24.11;37.47;101555.91;5070456;28;20011;-90
2023/09/11 01:55:24;;;;;;;;;;;;;;;24.08;37.39;101555.75;5076956;28;20028;-90
2023/09/11 01:57:49;;;;;;;;;;;;;;;24.06;37.47;101552.53;5072299;28;20006;-90
2023/09/11 02:00:15;;;;;;;;;;;;;;;24.03;37.78;101547.66;5070555;28;19942;-90
2023/09/11 02:02:40;;;;;;;;;;;;;;;23.99;37.25;101541.22;5073328;28;19920;-90
2023/09/11 02:05:06;;;;;;;;;;;;;;;23.96;37.35;101541.88;5069244;28;19921;-90
2023/09/11 02:07:31;;;;;;;;;;;;;;;23.94;37.42;101538.63;5073962;28;19924;-90
2023/09/11 02:09:56;;;;;;;;;;;;;;;23.91;37.53;101533.81;5071548;28;19961;-90
2023/09/11 02:12:24;;;;;;;;;;;;;;;23.87;37.70;101543.75;5073138;28;19916;-91
2023/09/11 02:14:50;;;;;;;;;;;;;;;23.83;37.62;101542.78;5071346;28;20034;-90
2023/09/11 02:17:15;;;;;;;;;;;;;;;23.78;37.53;101541.00;5066365;28;20020;-91
2023/09/11 02:19:40;;;;;;;;;;;;;;;23.75;37.65;101545.19;5073167;28;20326;-90
2023/09/11 02:22:06;;;;;;;;;;;;;;;23.69;37.83;101537.44;5073613;28;19917;-90
2023/09/11 02:24:31;;;;;;;;;;;;;;;23.63;37.66;101539.50;5077928;28;19940;-90
2023/09/11 02:26:57;;;;;;;;;;;;;;;23.59;37.66;101535.00;5076127;28;19921;-90
2023/09/11 02:29:23;;;;;;;;;;;;;;;23.57;37.89;101534.50;5080807;28;20212;-90
2023/09/11 02:31:48;;;;;;;;;;;;;;;23.53;37.82;101531.59;5074436;28;20581;-91
2023/09/11 02:34:14;;;;;;;;;;;;;;;23.51;37.74;101531.88;5076906;28;20352;-90
2023/09/11 02:36:39;;;;;;;;;;;;;;;23.47;37.69;101527.34;5083642;28;19931;-89
2023/09/11 02:39:04;;;;;;;;;;;;;;;23.45;38.00;101524.13;5093745;28;19999;-90
2023/09/11 02:41:30;;;;;;;;;;;;;;;23.45;37.88;101526.88;5075067;28;19928;-88
2023/09/11 02:43:55;;;;;;;;;;;;;;;23.45;37.83;101526.88;5076907;28;19935;-90
2023/09/11 02:46:20;;;;;;;;;;;;;;;23.45;37.67;101524.13;5073420;28;20402;-90
2023/09/11 02:48:47;;;;;;;;;;;;;;;23.40;37.73;101521.53;5074450;28;19943;-90
2023/09/11 02:51:13;;;;;;;;;;;;;;;23.35;37.64;101527.16;5074204;28;20132;-90
2023/09/11 02:53:38;;;;;;;;;;;;;;;23.33;37.73;101529.38;5074382;28;19927;-90
2023/09/11 02:56:04;;;;;;;;;;;;;;;23.29;37.78;101531.13;5076611;28;19923;-91
2023/09/11 02:58:29;;;;;;;;;;;;;;;23.25;37.94;101527.44;5077987;28;20379;-90
2023/09/11 03:00:54;;;;;;;;;;;;;;;23.23;37.96;101524.19;5072239;28;19916;-90
2023/09/11 03:03:20;;;;;;;;;;;;;;;23.20;38.02;101526.44;5076154;28;19920;-90
2023/09/11 03:05:46;;;;;;;;;;;;;;;23.14;38.17;101532.34;5071468;28;19916;-90
2023/09/11 03:08:12;;;;;;;;;;;;;;;23.09;38.00;101525.09;5077054;28;20377;-90
2023/09/11 03:10:37;;;;;;;;;;;;;;;23.09;38.13;101525.09;5073990;28;19920;-90
2023/09/11 03:13:03;;;;;;;;;;;;;;;23.09;38.02;101536.03;5077133;28;20049;-90
2023/09/11 03:15:29;;;;;;;;;;;;;;;23.07;38.19;101527.34;5071678;28;19928;-90
2023/09/11 03:17:54;;;;;;;;;;;;;;;23.06;38.31;101524.91;5075237;28;19924;-90
2023/09/11 03:20:20;;;;;;;;;;;;;;;23.02;38.26;101519.28;5070945;28;20172;-90
2023/09/11 03:22:45;;;;;;;;;;;;;;;22.95;38.25;101521.63;5076040;28;19921;-90
2023/09/11 03:25:11;;;;;;;;;;;;;;;22.87;38.33;101523.22;5078438;28;19920;-90
2023/09/11 03:27:36;;;;;;;;;;;;;;;22.80;38.70;101528.28;5074008;28;20343;-90
2023/09/11 03:30:01;;;;;;;;;;;;;;;22.74;38.57;101531.44;5072189;28;20426;-90
2023/09/11 03:32:27;;;;;;;;;;;;;;;22.73;38.44;101524.34;5073188;28;19916;-91
2023/09/11 03:34:55;;;;;;;;;;;;;;;22.72;38.26;101528.22;5072973;28;19938;-91
2023/09/11 03:37:23;;;;;;;;;;;;;;;22.71;38.21;101518.41;5074607;28;19920;-90
2023/09/11 03:39:48;;;;;;;;;;;;;;;22.72;37.93;101523.56;5070841;28;20040;-91
2023/09/11 03:42:14;;;;;;;;;;;;;;;22.71;37.73;101516.47;5073072;28;20403;-90
2023/09/11 03:44:39;;;;;;;;;;;;;;;22.69;37.85;101521.44;5073439;28;19928;-90
2023/09/11 03:47:04;;;;;;;;;;;;;;;22.66;37.88;101513.88;5074195;28;19930;-90
2023/09/11 03:49:30;;;;;;;;;;;;;;;22.64;38.08;101513.38;5075430;28;19925;-90
2023/09/11 03:51:55;;;;;;;;;;;;;;;22.59;38.25;101511.56;5069149;28;19920;-90
2023/09/11 03:54:20;;;;;;;;;;;;;;;22.55;38.72;101520.69;5074438;28;19939;-91
2023/09/11 03:56:46;;;;;;;;;;;;;;;22.48;38.15;101515.69;5072387;28;19923;-91
2023/09/11 03:59:11;;;;;;;;;;;;;;;22.45;38.41;101515.50;5076610;28;19927;-91
2023/09/11 04:01:36;;;;;;;;;;;;;;;22.42;38.22;101510.63;5073562;28;19946;-91
2023/09/11 04:04:02;;;;;;;;;;;;;;;22.36;38.25;101512.69;5074545;28;20098;-90
2023/09/11 04:06:27;;;;;;;;;;;;;;;22.33;38.23;101513.28;5074032;28;19971;-91
2023/09/11 04:08:52;;;;;;;;;;;;;;;22.30;38.49;101516.66;5077174;28;19954;-90
2023/09/11 04:11:19;;;;;;;;;;;;;;;22.27;38.55;101509.09;5074908;28;19924;-90
2023/09/11 04:13:44;;;;;;;;;;;;;;;22.24;38.69;101517.88;5073356;28;20116;-90
2023/09/11 04:16:10;;;;;;;;;;;;;;;22.22;38.71;101506.44;5075325;28;19995;-90
2023/09/11 04:18:35;;;;;;;;;;;;;;;22.18;38.63;101510.91;5075750;28;19916;-90
2023/09/11 04:21:01;;;;;;;;;;;;;;;22.15;38.60;101506.88;5077325;28;19916;-91
2023/09/11 04:23:27;;;;;;;;;;;;;;;22.14;38.99;101499.00;5073530;28;19931;-90
2023/09/11 04:25:53;;;;;;;;;;;;;;;22.09;38.82;101494.47;5075129;28;20273;-89
2023/09/11 04:28:18;;;;;;;;;;;;;;;22.08;38.94;101492.84;5073550;28;19925;-91
2023/09/11 04:30:44;;;;;;;;;;;;;;;22.06;39.15;101494.25;5074792;28;19920;-91
2023/09/11 04:33:09;;;;;;;;;;;;;;;22.03;39.12;101487.47;5074032;28;20442;-91
2023/09/11 04:35:34;;;;;;;;;;;;;;;22.03;39.17;101493.72;5077473;28;19920;-91
2023/09/11 04:38:00;;;;;;;;;;;;;;;22.00;39.34;101497.06;5082379;28;19923;-91
2023/09/11 04:40:25;;;;;;;;;;;;;;;21.98;39.64;101506.69;5073698;28;19989;-91
2023/09/11 04:42:50;;;;;;;;;;;;;;;21.96;39.08;101498.81;5070868;28;19917;-90
2023/09/11 04:45:15;;;;;;;;;;;;;;;21.97;39.68;101500.44;5070199;28;19927;-90
2023/09/11 04:47:41;;;;;;;;;;;;;;;21.94;39.85;101500.22;5076108;28;19947;-91
2023/09/11 04:50:06;;;;;;;;;;;;;;;21.91;39.30;101496.19;5074771;28;20002;-91
2023/09/11 04:52:32;;;;;;;;;;;;;;;21.91;39.53;101493.47;5069985;28;19959;-90
2023/09/11 04:54:58;;;;;;;;;;;;;;;21.92;39.30;101503.28;5078761;28;19963;-90
2023/09/11 04:57:23;;;;;;;;;;;;;;;21.94;39.45;101502.97;5081088;28;19920;-91
2023/09/11 04:59:49;;;;;;;;;;;;;;;21.93;38.93;101499.44;5078672;28;19938;-91
2023/09/11 05:02:14;;;;;;;;;;;;;;;21.92;39.12;101497.81;5084802;28;19916;-91
2023/09/11 05:04:42;;;;;;;;;;;;;;;21.91;39.16;101492.66;5086383;28;20261;-90
2023/09/11 05:07:07;;;;;;;;;;;;;;;21.91;39.16;101498.13;5080093;28;19952;-91
2023/09/11 05:09:33;;;;;;;;;;;;;;;21.90;39.31;101494.59;5079946;28;19924;-91
2023/09/11 05:11:58;;;;;;;;;;;;;;;21.92;39.29;101500.53;5077830;28;19916;-91
2023/09/11 05:14:24;;;;;;;;;;;;;;;21.93;39.20;101499.44;5077529;28;19916;-91
2023/09/11 05:16:49;;;;;;;;;;;;;;;21.96;39.21;101504.28;5080044;28;19923;-91
2023/09/11 05:19:14;;;;;;;;;;;;;;;22.01;39.08;101500.63;5078553;28;19973;-91
2023/09/11 05:21:40;;;;;;;;;;;;;;;22.05;39.29;101506.28;5079828;28;19923;-91
2023/09/11 05:24:05;;;;;;;;;;;;;;;22.08;39.71;101511.13;5076963;28;19932;-91
2023/09/11 05:26:31;;;;;;;;;;;;;;;22.10;39.30;101508.94;5075463;28;20003;-91
2023/09/11 05:28:57;;;;;;;;;;;;;;;22.14;39.73;101501.72;5080335;28;19947;-91
2023/09/11 05:31:22;;;;;;;;;;;;;;;22.18;39.82;101511.72;5075068;28;20395;-90
2023/09/11 05:33:47;;;;;;;;;;;;;;;22.21;40.09;101510.28;5078719;28;19920;-91
2023/09/11 05:36:13;;;;;;;;;;;;;;;22.22;40.06;101512.72;5076716;28;19927;-91
2023/09/11 05:38:38;;;;;;;;;;;;;;;22.23;40.11;101513.53;5074807;28;19916;-90
2023/09/11 05:41:03;;;;;;;;;;;;;;;22.24;40.35;101509.69;5073471;28;20032;-91
2023/09/11 05:43:29;;;;;;;;;;;;;;;22.28;40.21;101511.50;5077357;28;19931;-91
2023/09/11 05:45:54;;;;;;;;;;;;;;;22.35;40.00;101508.34;5081539;28;20030;-91
2023/09/11 05:48:20;;;;;;;;;;;;;;;22.42;40.43;101510.63;5074084;28;19973;-90
2023/09/11 05:50:45;;;;;;;;;;;;;;;22.49;40.61;101511.81;5078316;28;19927;-91
2023/09/11 05:53:10;;;;;;;;;;;;;;;22.59;40.37;101517.03;5074994;28;19923;-91
2023/09/11 05:55:36;;;;;;;;;;;;;;;22.67;40.86;101512.75;5077829;28;20102;-91
2023/09/11 05:58:02;;;;;;;;;;;;;;;22.75;40.81;101505.72;5074257;28;20069;-91
2023/09/11 06:00:27;;;;;;;;;;;;;;;22.81;41.20;101510.78;5073272;28;20476;-91
2023/09/11 06:02:53;;;;;;;;;;;;;;;22.85;40.73;101508.25;5072179;28;19920;-91
2023/09/11 06:05:19;;;;;;;;;;;;;;;22.91;40.76;101507.00;5077649;28;19970;-91
2023/09/11 06:07:44;;;;;;;;;;;;;;;23.00;40.78;101505.13;5077027;28;19945;-90
2023/09/11 06:10:10;;;;;;;;;;;;;;;23.11;40.93;101506.44;5076902;28;19920;-91
2023/09/11 06:12:35;;;;;;;;;;;;;;;23.19;41.07;101508.44;5076929;28;19916;-91
2023/09/11 06:15:04;;;;;;;;;;;;;;;23.27;41.11;101506.84;5076374;28;20432;-91
2023/09/11 06:17:29;;;;;;;;;;;;;;;23.35;41.15;101510.75;5071798;28;19939;-91
2023/09/11 06:19:54;;;;;;;;;;;;;;;23.38;41.17;101500.00;5080551;28;20513;-92
2023/09/11 06:22:20;;;;;;;;;;;;;;;23.47;41.41;101510.94;5072953;28;19920;-91
2023/09/11 06:24:45;;;;;;;;;;;;;;;23.57;41.20;101513.44;5075792;28;19928;-91
2023/09/11 06:27:10;;;;;;;;;;;;;;;23.66;41.64;101513.44;5075664;28;19924;-90
2023/09/11 06:29:36;;;;;;;;;;;;;;;23.73;41.57;101513.81;5084067;28;19916;-92
2023/09/11 06:32:02;;;;;;;;;;;;;;;23.79;41.29;101509.78;5072560;28;19919;-91
2023/09/11 06:34:29;;;;;;;;;;;;;;;23.90;41.74;101510.31;5075304;28;19920;-92
2023/09/11 06:36:55;;;;;;;;;;;;;;;24.06;41.10;101516.94;5079385;28;20009;-92
2023/09/11 06:39:20;;;;;;;;;;;;;;;24.21;40.44;101510.97;5075518;28;20435;-91
2023/09/11 06:41:45;;;;;;;;;;;;;;;24.35;41.43;101505.38;5074733;28;20410;-92
2023/09/11 06:44:11;;;;;;;;;;;;;;;24.47;41.30;101507.47;5075457;28;19920;-92
2023/09/11 06:46:36;;;;;;;;;;;;;;;24.60;41.41;101501.81;5075086;28;19924;-92
2023/09/11 06:49:02;;;;;;;;;;;;;;;24.73;41.56;101497.25;5073405;28;20038;-92
2023/09/11 06:51:27;;;;;;;;;;;;;;;24.85;40.85;101502.88;5074166;28;19921;-91
2023/09/11 06:53:54;;;;;;;;;;;;;;;24.99;41.41;101497.22;5073881;28;19927;-91
2023/09/11 06:56:19;;;;;;;;;;;;;;;25.14;41.43;101506.88;5075098;28;19920;-92
2023/09/11 06:58:45;;;;;;;;;;;;;;;25.25;41.42;101499.88;5073739;28;19923;-91
2023/09/11 07:01:11;;;;;;;;;;;;;;;25.37;41.48;101505.47;5073826;28;20253;-91
2023/09/11 07:03:36;;;;;;;;;;;;;;;25.51;41.42;101502.53;5073139;28;19928;-91
2023/09/11 07:06:02;;;;;;;;;;;;;;;25.63;41.26;101508.09;5073473;28;19920;-91
2023/09/11 07:08:28;;;;;;;;;;;;;;;25.78;41.17;101504.00;5075132;28;19921;-92
2023/09/11 07:10:54;;;;;;;;;;;;;;;25.92;41.30;101507.31;5072678;28;19924;-91
2023/09/11 07:13:19;;;;;;;;;;;;;;;26.06;41.25;101505.09;5073733;28;19931;-92
2023/09/11 07:15:56;;;;;;;;;;;;;;;26.19;41.26;101504.00;5073057;28;19920;-91
2023/09/11 07:18:21;;;;;;;;;;;;;;;26.29;41.21;101510.25;5069376;28;19928;-91
2023/09/11 07:20:46;;;;;;;;;;;;;;;26.39;41.32;101509.84;5072997;28;19920;-91
2023/09/11 07:23:12;;;;;;;;;;;;;;;26.55;41.01;101496.31;5078530;28;19920;-91
2023/09/11 07:25:37;;;;;;;;;;;;;;;26.68;41.31;101497.97;5079492;28;19924;-91
2023/09/11 07:28:03;;;;;;;;;;;;;;;26.83;41.03;101499.28;5078800;28;19924;-91
2023/09/11 07:30:28;;;;;;;;;;;;;;;26.99;41.08;101501.03;5088986;28;19982;-91
2023/09/11 07:32:53;;;;;;;;;;;;;;;27.14;40.76;101494.09;5081679;28;19920;-91
2023/09/11 07:35:19;;;;;;;;;;;;;;;27.27;40.47;101489.38;5077726;28;20457;-90
2023/09/11 07:37:44;;;;;;;;;;;;;;;27.37;40.77;101494.44;5080192;28;19924;-92
2023/09/11 07:40:09;;;;;;;;;;;;;;;27.50;40.11;101492.50;5078789;28;20011;-91
2023/09/11 07:42:36;;;;;;;;;;;;;;;27.65;40.25;101495.38;5082356;28;19923;-90
2023/09/11 07:45:01;;;;;;;;;;;;;;;27.79;40.29;101485.94;5076770;28;19920;-91
2023/09/11 07:47:27;;;;;;;;;;;;;;;27.93;40.06;101487.19;5081745;28;19923;-91
2023/09/11 07:49:53;;;;;;;;;;;;;;;28.05;39.84;101485.56;5076744;28;19927;-90
2023/09/11 07:52:18;;;;;;;;;;;;;;;28.21;39.73;101494.69;5074921;28;20440;-91
2023/09/11 07:54:43;;;;;;;;;;;;;;;28.38;39.64;101491.66;5076915;28;20026;-90
2023/09/11 07:57:09;;;;;;;;;;;;;;;28.56;39.42;101484.69;5073242;28;20269;-91
2023/09/11 07:59:34;;;;;;;;;;;;;;;28.75;39.33;101489.53;5073772;28;19986;-91
2023/09/11 08:01:59;;;;;;;;;;;;;;;28.88;39.33;101484.75;5073072;28;19960;-91
2023/09/11 08:04:25;;;;;;;;;;;;;;;29.07;38.93;101484.84;5072474;28;19930;-90
2023/09/11 08:06:50;;;;;;;;;;;;;;;29.27;38.97;101471.16;5078328;28;19963;-91
2023/09/11 08:09:15;;;;;;;;;;;;;;;29.39;38.63;101482.88;5075862;28;19959;-90
2023/09/11 08:11:41;;;;;;;;;;;;;;;29.53;38.57;101479.69;5077646;28;20292;-91
2023/09/11 08:14:06;;;;;;;;;;;;;;;29.71;38.31;101478.13;5073243;28;19942;-90
2023/09/11 08:16:32;;;;;;;;;;;;;;;29.88;38.04;101481.66;5074243;28;19930;-91
2023/09/11 08:18:57;;;;;;;;;;;;;;;30.03;38.19;101480.78;5072293;28;20291;-89
2023/09/11 08:21:22;;;;;;;;;;;;;;;30.19;37.96;101486.28;5076351;28;19920;-91
2023/09/11 08:23:48;;;;;;;;;;;;;;;30.39;37.79;101485.09;5075347;28;20171;-91
2023/09/11 08:26:13;;;;;;;;;;;;;;;30.61;37.81;101489.06;5074403;28;20009;-90
2023/09/11 08:28:38;;;;;;;;;;;;;;;30.75;37.46;101486.59;5074644;28;20360;-91
2023/09/11 08:31:04;;;;;;;;;;;;;;;30.93;37.50;101482.19;5077923;28;20272;-91
2023/09/11 08:33:30;;;;;;;;;;;;;;;31.06;37.33;101485.56;5076904;28;20020;-91
2023/09/11 08:35:55;;;;;;;;;;;;;;;31.22;36.99;101482.69;5073613;28;19935;-91
2023/09/11 08:38:21;;;;;;;;;;;;;;;31.36;36.91;101480.13;5068577;28;19955;-89
2023/09/11 08:40:46;;;;;;;;;;;;;;;31.46;36.41;101481.47;5071301;28;20611;-89
2023/09/11 08:43:11;;;;;;;;;;;;;;;31.58;37.00;101472.94;5070930;28;19955;-89
2023/09/11 08:45:38;;;;;;;;;;;;;;;31.71;36.58;101479.06;5068633;28;20125;-88
2023/09/11 08:48:10;;;;;;;;;;;;;;;31.76;36.32;101478.75;5078473;28;19954;-88
2023/09/11 08:50:39;;;;;;;;;;;;;;;31.86;36.46;101478.13;5070091;28;19920;-89
2023/09/11 08:53:05;;;;;;;;;;;;;;;31.97;36.47;101473.53;5070997;28;19932;-88
2023/09/11 08:55:33;;;;;;;;;;;;;;;32.16;36.22;101467.81;5072268;28;20556;-88
2023/09/11 08:58:01;;;;;;;;;;;;;;;32.36;36.28;101470.44;5070902;28;19916;-89
2023/09/11 09:00:28;;;;;;;;;;;;;;;32.57;35.75;101473.44;5075192;28;19920;-90
2023/09/11 09:02:53;;;;;;;;;;;;;;;32.74;35.88;101472.03;5071582;28;19920;-87
2023/09/11 09:05:19;;;;;;;;;;;;;;;32.92;35.96;101466.66;5075099;28;19930;-88
2023/09/11 09:07:46;;;;;;;;;;;;;;;33.13;35.83;101471.59;5067847;28;20432;-88
2023/09/11 09:10:11;;;;;;;;;;;;;;;33.33;35.51;101465.41;5066382;28;20052;-87
2023/09/11 09:12:37;;;;;;;;;;;;;;;33.54;35.51;101461.19;5072687;28;20003;-88
2023/09/11 09:15:03;;;;;;;;;;;;;;;33.68;34.94;101458.47;5078360;28;20471;-88
2023/09/11 09:17:28;;;;;;;;;;;;;;;33.83;34.70;101462.94;5077529;28;19920;-87
2023/09/11 09:19:54;;;;;;;;;;;;;;;33.98;34.66;101454.69;5076289;28;19916;-89
2023/09/11 09:22:19;;;;;;;;;;;;;;;34.12;34.64;101454.75;5071852;28;19924;-89
2023/09/11 09:24:51;;;;;;;;;;;;;;;34.25;34.79;101453.19;5072277;28;19928;-90
2023/09/11 09:27:17;;;;;;;;;;;;;;;34.38;34.14;101445.31;5068851;28;19920;-91
2023/09/11 09:29:42;;;;;;;;;;;;;;;34.50;34.08;101456.06;5068990;28;19916;-87
2023/09/11 09:32:09;;;;;;;;;;;;;;;34.59;33.87;101450.09;5068302;28;20352;-90
2023/09/11 09:34:36;;;;;;;;;;;;;;;34.66;33.77;101450.13;5061652;28;19952;-89
2023/09/11 09:37:01;;;;;;;;;;;;;;;34.76;33.86;101452.09;5064925;28;19916;-88
2023/09/11 09:39:28;;;;;;;;;;;;;;;34.92;33.50;101452.53;5067094;28;19946;-90
2023/09/11 09:41:54;;;;;;;;;;;;;;;35.13;33.50;101446.94;5072880;28;19916;-89
2023/09/11 09:44:29;;;;;;;;;;;;;;;35.32;33.30;101442.16;5069175;28;19934;-89
2023/09/11 09:46:55;;;;;;;;;;;;;;;35.49;33.42;101444.13;5071420;28;20240;-89
2023/09/11 09:49:23;;;;;;;;;;;;;;;35.66;33.11;101434.91;5070441;28;20384;-90
2023/09/11 09:51:48;;;;;;;;;;;;;;;35.81;33.00;101432.88;5067139;28;19920;-90
2023/09/11 09:54:13;;;;;;;;;;;;;;;35.97;32.60;101426.84;5067034;28;19921;-90
2023/09/11 09:56:39;;;;;;;;;;;;;;;36.14;32.00;101428.75;5069659;28;20004;-89
2023/09/11 09:59:05;;;;;;;;;;;;;;;36.32;32.55;101417.53;5070116;28;19924;-90
2023/09/11 10:01:30;;;;;;;;;;;;;;;36.48;32.18;101422.59;5075906;28;19974;-90
2023/09/11 10:03:56;;;;;;;;;;;;;;;36.66;32.25;101420.47;5069322;28;20007;-91
2023/09/11 10:06:22;;;;;;;;;;;;;;;36.85;31.65;101417.13;5073711;28;19921;-90
2023/09/11 10:09:03;;;;;;;;;;;;;;;37.01;32.31;101411.00;5071308;28;19924;-90
2023/09/11 10:11:30;;;;;;;;;;;;;;;37.17;31.77;101402.06;5068633;28;19928;-91
2023/09/11 10:13:56;;;;;;;;;;;;;;;37.33;31.21;101407.88;5075878;28;20295;-91
2023/09/11 10:16:23;;;;;;;;;;;;;;;37.49;30.93;101402.50;5070696;28;19920;-91
2023/09/11 10:18:49;;;;;;;;;;;;;;;37.60;30.91;101404.41;5083929;28;19965;-92
2023/09/11 10:21:18;;;;;;;;;;;;;;;37.68;30.68;101394.69;5078883;28;19928;-90
2023/09/11 10:23:43;;;;;;;;;;;;;;;37.77;30.54;101390.22;5073406;28;19924;-89
2023/09/11 10:26:10;;;;;;;;;;;;;;;37.89;30.51;101377.69;5066207;28;20311;-90
2023/09/11 10:28:39;;;;;;;;;;;;;;;38.07;30.22;101383.81;5069814;28;19985;-92
2023/09/11 10:31:15;;;;;;;;;;;;;;;38.18;29.26;101377.25;5068678;28;19966;-87
2023/09/11 10:33:41;;;;;;;;;;;;;;;38.19;28.41;101376.06;5068382;28;19974;-86
2023/09/11 10:36:13;;;;;;;;;;;;;;;38.23;29.58;101368.41;5069622;28;19921;-86
2023/09/11 10:38:40;;;;;;;;;;;;;;;38.35;28.54;101367.81;5068561;28;20303;-87
2023/09/11 10:41:09;;;;;;;;;;;;;;;38.47;28.23;101370.03;5071816;28;19986;-93
2023/09/11 10:43:34;;;;;;;;;;;;;;;38.57;27.69;101366.25;5075105;28;19928;-88
2023/09/11 10:46:27;;;;;;;;;;;;;;;38.56;27.85;101367.44;5070882;28;19924;-91
2023/09/11 10:48:53;;;;;;;;;;;;;;;38.61;27.31;101358.59;5065846;28;19924;-87
2023/09/11 10:51:18;;;;;;;;;;;;;;;38.69;27.61;101354.47;5069790;28;20295;-86
2023/09/11 10:53:47;;;;;;;;;;;;;;;38.77;27.50;101343.91;5073387;28;19951;-87
2023/09/11 10:56:12;;;;;;;;;;;;;;;38.83;27.41;101353.41;5073145;28;19920;-90
2023/09/11 10:58:38;;;;;;;;;;;;;;;38.71;26.96;101350.44;5074904;28;20816;-88
2023/09/11 11:01:04;;;;;;;;;;;;;;;38.53;26.37;101342.31;5074882;28;20645;-94
2023/09/11 11:03:30;;;;;;;;;;;;;;;38.50;26.34;101345.97;5074302;28;20245;-88
2023/09/11 11:05:58;;;;;;;;;;;;;;;38.57;26.58;101335.44;5075746;28;19952;-88
2023/09/11 11:08:23;;;;;;;;;;;;;;;38.63;26.62;101333.78;5077030;28;20048;-87
2023/09/11 11:10:55;;;;;;;;;;;;;;;38.68;26.37;101333.28;5074474;28;20380;-87
2023/09/11 11:13:20;;;;;;;;;;;;;;;38.72;25.45;101335.22;5073257;28;19919;-87
2023/09/11 11:15:46;;;;;;;;;;;;;;;38.78;26.25;101339.09;5070823;28;19977;-92
2023/09/11 11:18:12;;;;;;;;;;;;;;;38.89;26.10;101328.50;5075475;28;19920;-93
2023/09/11 11:20:58;;;;;;;;;;;;;;;39.09;25.95;101334.94;5075833;28;20086;-90
2023/09/11 11:23:24;;;;;;;;;;;;;;;39.24;25.46;101327.81;5071026;28;20376;-89
2023/09/11 11:25:50;;;;;;;;;;;;;;;39.21;25.53;101325.09;5073624;28;19928;-91
2023/09/11 11:28:16;;;;;;;;;;;;;;;39.23;25.09;101320.63;5071423;28;19920;-89
2023/09/11 11:30:43;;;;;;;;;;;;;;;39.33;25.43;101329.28;5068092;28;19920;-88
2023/09/11 11:33:12;;;;;;;;;;;;;;;39.37;24.97;101321.56;5072736;28;19920;-89
2023/09/11 11:35:40;;;;;;;;;;;;;;;39.45;25.28;101317.38;5070034;28;20011;-91
2023/09/11 11:38:06;;;;;;;;;;;;;;;39.56;25.06;101321.56;5073014;28;19926;-86
2023/09/11 11:40:31;;;;;;;;;;;;;;;39.62;25.12;101324.63;5068697;28;19931;-86
2023/09/11 11:42:57;;;;;;;;;;;;;;;39.65;24.70;101306.94;5070229;28;20051;-88
2023/09/11 11:45:22;;;;;;;;;;;;;;;39.66;24.25;101302.91;5070593;28;20368;-86
2023/09/11 11:47:49;;;;;;;;;;;;;;;39.58;24.41;101318.31;5070830;28;19931;-87
2023/09/11 11:50:14;;;;;;;;;;;;;;;39.51;24.24;101318.47;5066387;28;19962;-86
2023/09/11 11:52:43;;;;;;;;;;;;;;;39.44;24.00;101316.59;5071212;28;19951;-87
2023/09/11 11:55:22;;;;;;;;;;;;;;;39.37;24.39;101318.75;5070536;28;19932;-86
2023/09/11 11:57:52;;;;;;;;;;;;;;;39.40;23.95;101317.91;5067619;28;19920;-85
2023/09/11 12:00:17;;;;;;;;;;;;;;;39.42;23.81;101312.63;5067303;28;19974;-86
2023/09/11 12:02:42;;;;;;;;;;;;;;;39.44;23.75;101318.59;5067475;28;19916;-85
2023/09/11 12:05:12;;;;;;;;;;;;;;;39.55;23.83;101316.41;5070998;28;20324;-85
2023/09/11 12:07:37;;;;;;;;;;;;;;;39.75;23.80;101310.75;5069309;28;19969;-85
2023/09/11 12:10:03;;;;;;;;;;;;;;;39.94;23.51;101309.88;5072044;28;19924;-86
2023/09/11 12:12:28;;;;;;;;;;;;;;;40.07;23.12;101310.00;5075206;28;19931;-86
2023/09/11 12:14:55;;;;;;;;;;;;;;;40.06;22.48;101308.44;5073176;28;19962;-86
2023/09/11 12:17:21;;;;;;;;;;;;;;;40.07;22.96;101310.81;5070268;28;19917;-86
2023/09/11 12:19:46;;;;;;;;;;;;;;;40.13;22.76;101309.03;5074271;28;19974;-86
2023/09/11 12:22:12;;;;;;;;;;;;;;;40.13;22.83;101297.03;5079949;28;20410;-85
2023/09/11 12:24:38;;;;;;;;;;;;;;;40.21;22.54;101300.44;5081082;28;19924;-90
2023/09/11 12:27:04;;;;;;;;;;;;;;;40.32;22.18;101300.97;5071381;28;19924;-86
2023/09/11 12:29:34;;;;;;;;;;;;;;;40.31;22.12;101302.97;5075156;28;20361;-86